Time;durP1;ratioP1;P1;durP2;ratioP2;P2;SDS_P1;SDS_P2;PMS_P1;PMS_P2;Temp;Humidity;BMP_temperature;BMP_pressure;BME280_temperature;BME280_humidity;BME280_pressure;Samples;Min_cycle;Max_cycle;Signal;HPM_P1;HPM_P2
2021/05/31 00:00:36;;;;;;;9.30;6.90;;;231.10;2252.80;;;;;;4926800;29;20386;-68
2021/05/31 00:03:01;;;;;;;9.07;6.15;;;231.10;2252.80;;;;;;4935309;29;20020;-67
2021/05/31 00:05:27;;;;;;;8.00;6.25;;;231.00;2252.80;;;;;;4935019;29;20493;-68
2021/05/31 00:07:54;;;;;;;9.25;6.03;;;231.00;2252.80;;;;;;4935148;29;20016;-68
2021/05/31 00:10:21;;;;;;;11.93;7.75;;;231.00;2252.80;;;;;;4935385;29;20027;-67
2021/05/31 00:12:47;;;;;;;10.00;6.57;;;231.00;2252.80;;;;;;4935268;29;20023;-67
2021/05/31 00:15:13;;;;;;;7.97;6.13;;;231.00;2252.80;;;;;;4935215;29;20032;-69
2021/05/31 00:17:39;;;;;;;8.98;6.50;;;230.90;2252.80;;;;;;4934764;29;20063;-67
2021/05/31 00:20:10;;;;;;;10.73;6.57;;;230.90;2252.80;;;;;;4934766;29;20055;-67
2021/05/31 00:22:37;;;;;;;9.80;7.03;;;230.90;2252.80;;;;;;4934656;28;20114;-68
2021/05/31 00:25:05;;;;;;;11.27;6.70;;;230.90;2252.80;;;;;;4934863;29;20028;-69
2021/05/31 00:27:30;;;;;;;9.30;6.32;;;230.90;2252.80;;;;;;4934803;29;20035;-68
2021/05/31 00:29:56;;;;;;;7.65;5.78;;;230.90;2252.80;;;;;;4934728;29;20394;-68
2021/05/31 00:32:22;;;;;;;8.27;5.70;;;230.80;2252.80;;;;;;4934930;29;20036;-69
2021/05/31 00:34:47;;;;;;;7.55;5.50;;;230.70;2252.80;;;;;;4934584;29;20066;-69
2021/05/31 00:37:14;;;;;;;9.48;5.43;;;230.60;2252.80;;;;;;4933696;29;20107;-67
2021/05/31 00:39:40;;;;;;;7.53;5.53;;;230.50;2252.80;;;;;;4934762;29;20049;-69
2021/05/31 00:42:06;;;;;;;8.95;6.05;;;230.40;2252.80;;;;;;4934777;29;20027;-68
2021/05/31 00:44:32;;;;;;;8.20;6.13;;;205.70;2252.80;;;;;;4934514;29;20089;-69
2021/05/31 00:46:58;;;;;;;9.13;6.20;;;205.70;2252.80;;;;;;4934429;29;20482;-68
2021/05/31 00:49:27;;;;;;;7.82;5.97;;;205.70;2252.80;;;;;;4934544;29;20032;-67
2021/05/31 00:51:53;;;;;;;8.73;5.90;;;205.70;2252.80;;;;;;4934570;29;20032;-69
2021/05/31 00:54:20;;;;;;;8.45;5.95;;;205.70;2252.80;;;;;;4934300;29;20079;-68
2021/05/31 00:56:46;;;;;;;12.07;7.75;;;205.70;2252.80;;;;;;4934268;29;20118;-67
2021/05/31 00:59:13;;;;;;;9.65;7.35;;;205.70;2252.80;;;;;;4934220;29;20023;-68
2021/05/31 01:01:39;;;;;;;9.90;6.65;;;205.60;2252.80;;;;;;4934281;29;20020;-68
2021/05/31 01:04:06;;;;;;;8.45;6.68;;;205.60;2252.80;;;;;;4934143;29;20035;-68
2021/05/31 01:06:37;;;;;;;10.10;6.53;;;205.50;2252.80;;;;;;4934307;29;20030;-69
2021/05/31 01:09:17;;;;;;;13.95;9.05;;;205.50;2252.80;;;;;;4934108;28;20039;-68
2021/05/31 01:12:07;;;;;;;13.30;8.00;;;205.30;2252.80;;;;;;4934142;29;20036;-68
2021/05/31 01:14:36;;;;;;;;;;;205.30;2252.80;;;;;;4969448;28;20039;-68
2021/05/31 01:17:12;;;;;;;12.73;7.65;;;205.20;2252.80;;;;;;4933991;29;19911;-68
2021/05/31 01:19:53;;;;;;;12.00;7.97;;;205.20;2252.80;;;;;;4933679;29;20044;-69
2021/05/31 01:22:24;;;;;;;9.52;7.15;;;205.20;2252.80;;;;;;4934167;29;20028;-68
2021/05/31 01:24:50;;;;;;;11.93;7.63;;;205.20;2252.80;;;;;;4934226;28;20418;-68
2021/05/31 01:27:22;;;;;;;10.32;7.53;;;205.20;2252.80;;;;;;4934179;29;20165;-68
2021/05/31 01:30:22;;;;;;;10.88;8.05;;;205.30;2252.80;;;;;;4934043;29;20150;-68
2021/05/31 01:32:51;;;;;;;10.60;8.00;;;205.40;2252.80;;;;;;4947729;28;20047;-68
2021/05/31 01:35:26;;;;;;;12.65;8.43;;;205.50;2252.80;;;;;;4933839;29;20445;-67
2021/05/31 01:37:55;;;;;;;12.27;8.38;;;205.60;2252.80;;;;;;4933904;29;20538;-68
2021/05/31 01:40:23;;;;;;;12.30;7.88;;;205.60;2252.80;;;;;;4934028;29;20414;-68
2021/05/31 01:42:53;;;;;;;11.75;8.35;;;205.60;2252.80;;;;;;4933995;29;20424;-68
2021/05/31 01:45:20;;;;;;;10.50;7.72;;;205.60;2252.80;;;;;;4933437;29;20075;-68
2021/05/31 01:47:46;;;;;;;10.75;7.75;;;205.60;2252.80;;;;;;4933668;29;20028;-70
2021/05/31 01:50:13;;;;;;;9.90;7.43;;;205.70;2252.80;;;;;;4933474;29;20035;-68
2021/05/31 01:52:43;;;;;;;10.93;7.85;;;230.40;2252.80;;;;;;4933629;29;20024;-68
2021/05/31 01:55:10;;;;;;;10.70;7.53;;;230.40;2252.80;;;;;;4933773;29;20028;-71
2021/05/31 01:57:37;;;;;;;11.68;7.97;;;230.50;2252.80;;;;;;4933318;29;20032;-68
2021/05/31 02:00:06;;;;;;;10.55;7.88;;;230.50;2252.80;;;;;;4933697;29;20134;-69
2021/05/31 02:02:32;;;;;;;10.35;7.82;;;230.50;2252.80;;;;;;4933324;29;20078;-69
2021/05/31 02:04:57;;;;;;;10.63;7.40;;;230.50;2252.80;;;;;;4933359;29;20027;-68
2021/05/31 02:07:23;;;;;;;9.93;7.63;;;230.60;2252.80;;;;;;4933216;29;20427;-67
2021/05/31 02:09:49;;;;;;;9.73;7.07;;;230.50;2252.80;;;;;;4933136;29;20070;-68
2021/05/31 02:12:20;;;;;;;9.68;6.75;;;230.50;2252.80;;;;;;4933097;29;20036;-72
2021/05/31 02:15:03;;;;;;;9.43;6.32;;;230.50;2252.80;;;;;;4933321;29;20027;-74
2021/05/31 02:17:32;;;;;;;9.40;6.90;;;230.50;2252.80;;;;;;4933000;29;20032;-76
2021/05/31 02:20:09;;;;;;;10.82;6.97;;;230.50;2252.80;;;;;;4933056;29;20048;-69
2021/05/31 02:22:43;;;;;;;9.27;6.88;;;230.50;2252.80;;;;;;4932255;29;20034;-69
2021/05/31 02:25:10;;;;;;;10.20;6.72;;;230.50;2252.80;;;;;;4933384;29;20050;-69
2021/05/31 02:27:36;;;;;;;10.63;7.05;;;230.50;2252.80;;;;;;4932846;29;20027;-68
2021/05/31 02:30:03;;;;;;;8.75;6.38;;;230.50;2252.80;;;;;;4932859;29;20325;-68
2021/05/31 02:32:30;;;;;;;9.68;6.60;;;230.50;2252.80;;;;;;4932803;29;20031;-68
2021/05/31 02:34:57;;;;;;;8.98;6.38;;;230.50;2252.80;;;;;;4932908;29;20482;-68
2021/05/31 02:37:37;;;;;;;9.35;6.13;;;230.40;2252.80;;;;;;4932820;29;20032;-68
2021/05/31 02:40:05;;;;;;;9.23;6.57;;;205.70;2252.80;;;;;;4932822;29;20081;-69
2021/05/31 02:43:04;;;;;;;9.95;6.55;;;205.70;2252.80;;;;;;4932889;29;20067;-69
2021/05/31 02:45:31;;;;;;;9.63;6.40;;;205.70;2252.80;;;;;;4974675;28;20036;-69
2021/05/31 02:47:58;;;;;;;9.43;6.18;;;205.60;2252.80;;;;;;4932726;29;20115;-69
2021/05/31 02:50:27;;;;;;;8.68;6.22;;;205.50;2252.80;;;;;;4932566;29;20051;-69
2021/05/31 02:52:54;;;;;;;9.18;6.85;;;205.40;2252.80;;;;;;4932696;29;20122;-68
2021/05/31 02:55:22;;;;;;;11.13;6.63;;;205.30;2252.80;;;;;;4932761;29;20024;-68
2021/05/31 02:57:49;;;;;;;9.10;6.28;;;205.20;2252.80;;;;;;4932549;29;20589;-69
2021/05/31 03:00:17;;;;;;;8.90;6.40;;;205.10;2252.80;;;;;;4932519;29;20107;-67
2021/05/31 03:02:43;;;;;;;10.60;6.28;;;205.10;2252.80;;;;;;4932877;28;20378;-72
2021/05/31 03:05:11;;;;;;;8.57;6.32;;;204.90;2252.80;;;;;;4932510;29;20443;-69
2021/05/31 03:07:37;;;;;;;9.77;6.50;;;204.90;2252.80;;;;;;4932631;29;20389;-68
2021/05/31 03:10:04;;;;;;;8.30;6.35;;;180.10;2252.80;;;;;;4932470;29;20028;-68
2021/05/31 03:12:30;;;;;;;10.30;7.60;;;180.10;2252.80;;;;;;4932362;29;20024;-68
2021/05/31 03:14:55;;;;;;;11.27;7.90;;;180.00;2252.80;;;;;;4932409;29;20481;-68
2021/05/31 03:17:21;;;;;;;10.65;7.40;;;180.10;2252.80;;;;;;4932197;29;20486;-69
2021/05/31 03:19:48;;;;;;;13.10;8.30;;;180.10;2252.80;;;;;;4932223;29;20058;-67
2021/05/31 03:22:14;;;;;;;22.20;12.95;;;180.10;2252.80;;;;;;4932406;29;20035;-68
2021/05/31 03:24:40;;;;;;;26.38;16.13;;;180.10;2252.80;;;;;;4932356;29;20020;-68
2021/05/31 03:27:06;;;;;;;25.35;15.18;;;204.80;2252.80;;;;;;4932332;29;20031;-67
2021/05/31 03:29:32;;;;;;;20.88;13.60;;;204.80;2252.80;;;;;;4932253;29;20050;-68
2021/05/31 03:31:58;;;;;;;20.58;13.80;;;204.90;2252.80;;;;;;4932314;29;20020;-68
2021/05/31 03:34:24;;;;;;;19.98;12.60;;;205.00;2252.80;;;;;;4935046;29;20032;-68
2021/05/31 03:36:50;;;;;;;16.27;10.75;;;205.10;2252.80;;;;;;4935528;29;20054;-68
2021/05/31 03:39:16;;;;;;;13.02;9.02;;;205.20;2252.80;;;;;;4941532;29;20509;-67
2021/05/31 03:41:42;;;;;;;11.82;8.75;;;205.30;2252.80;;;;;;4935399;29;20035;-68
2021/05/31 03:44:08;;;;;;;12.32;8.05;;;205.40;2252.80;;;;;;4940926;29;20033;-67
2021/05/31 03:46:34;;;;;;;10.32;7.57;;;205.60;2252.80;;;;;;4936945;28;20111;-68
2021/05/31 03:48:59;;;;;;;12.25;7.55;;;205.70;2252.80;;;;;;4935443;29;20153;-65
2021/05/31 03:51:25;;;;;;;12.50;7.68;;;230.40;2252.80;;;;;;4935435;29;20040;-66
2021/05/31 03:53:51;;;;;;;16.92;10.52;;;230.50;2252.80;;;;;;4935200;29;20030;-67
2021/05/31 03:56:17;;;;;;;12.63;9.75;;;230.60;2252.80;;;;;;4935400;29;20038;-67
2021/05/31 03:58:45;;;;;;;11.63;8.68;;;230.70;2252.80;;;;;;4939812;29;20047;-66
2021/05/31 04:01:12;;;;;;;11.73;8.30;;;230.90;2252.80;;;;;;4940265;29;20024;-67
2021/05/31 04:03:38;;;;;;;11.88;8.40;;;231.10;2252.80;;;;;;4946380;28;20122;-67
2021/05/31 04:06:15;;;;;;;11.73;7.82;;;231.10;2252.80;;;;;;4934896;29;20035;-67
2021/05/31 04:11:37;;;;;;;10.38;7.65;;;231.30;2252.80;;;;;;4935024;29;20090;-68
2021/05/31 04:14:11;;;;;;;11.60;8.30;;;256.20;2252.80;;;;;;4934843;29;20019;-68
2021/05/31 04:16:39;;;;;;;12.18;8.63;;;256.50;2252.80;;;;;;4934961;29;20032;-66
2021/05/31 04:19:07;;;;;;;14.82;8.90;;;256.70;2252.80;;;;;;4934476;29;20098;-66
2021/05/31 04:21:33;;;;;;;12.82;9.10;;;256.90;2252.80;;;;;;4934727;29;20580;-67
2021/05/31 04:23:59;;;;;;;11.73;8.50;;;281.70;2278.40;;;;;;4934900;29;20028;-67
2021/05/31 04:26:26;;;;;;;11.50;8.75;;;281.70;2278.40;;;;;;4935083;29;20425;-66
2021/05/31 04:28:52;;;;;;;11.73;8.57;;;281.90;2278.40;;;;;;4934709;29;20032;-68
2021/05/31 04:31:17;;;;;;;13.23;8.50;;;282.10;2278.40;;;;;;4934925;28;20452;-67
2021/05/31 04:33:43;;;;;;;13.45;8.50;;;282.30;2278.40;;;;;;4934940;29;20433;-67
2021/05/31 04:36:10;;;;;;;10.82;8.30;;;282.40;2278.40;;;;;;4934395;29;20512;-67
2021/05/31 04:38:37;;;;;;;10.57;7.95;;;307.20;2304.00;;;;;;4934634;29;20028;-67
2021/05/31 04:41:03;;;;;;;11.20;8.20;;;307.30;2304.00;;;;;;4933170;29;20424;-66
2021/05/31 04:43:29;;;;;;;11.32;7.60;;;307.40;2304.00;;;;;;4934506;29;20036;-67
2021/05/31 04:45:54;;;;;;;9.35;6.78;;;307.60;2304.00;;;;;;4933811;29;20111;-68
2021/05/31 04:48:20;;;;;;;9.75;6.93;;;307.70;2304.00;;;;;;4934480;29;20043;-68
2021/05/31 04:50:46;;;;;;;9.57;6.72;;;307.80;2304.00;;;;;;4934526;29;20436;-68
2021/05/31 04:53:12;;;;;;;9.77;6.57;;;307.90;2304.00;;;;;;4934470;29;20027;-68
2021/05/31 04:55:39;;;;;;;8.20;5.70;;;308.10;2304.00;;;;;;4934562;29;20028;-69
2021/05/31 04:58:05;;;;;;;8.15;5.30;;;332.90;2329.60;;;;;;4934379;29;20024;-67
2021/05/31 05:00:31;;;;;;;6.63;4.65;;;332.90;2329.60;;;;;;4934524;29;20028;-69
2021/05/31 05:02:57;;;;;;;6.63;4.57;;;333.00;2329.60;;;;;;4934304;29;20489;-69
2021/05/31 05:05:23;;;;;;;6.53;4.30;;;333.00;2329.60;;;;;;4934225;29;20027;-68
2021/05/31 05:07:49;;;;;;;5.80;4.10;;;333.20;2329.60;;;;;;4934363;29;20070;-69
2021/05/31 05:10:20;;;;;;;6.60;4.15;;;333.30;2329.60;;;;;;4934280;29;20834;-70
2021/05/31 05:12:46;;;;;;;;;;;333.40;2329.60;;;;;;4934538;29;20028;-68
2021/05/31 05:15:13;;;;;;;4.97;3.45;;;333.60;2329.60;;;;;;4932990;29;19907;-68
2021/05/31 05:17:39;;;;;;;7.00;3.80;;;333.70;2329.60;;;;;;4934263;29;20433;-68
2021/05/31 05:20:06;;;;;;;5.55;4.10;;;358.40;2329.60;;;;;;4934013;29;20044;-71
2021/05/31 05:22:31;;;;;;;6.50;3.88;;;358.50;2329.60;;;;;;4933817;29;20028;-71
2021/05/31 05:24:58;;;;;;;6.18;4.20;;;358.70;2329.60;;;;;;4933993;29;20035;-69
2021/05/31 05:27:23;;;;;;;7.18;4.10;;;358.90;2329.60;;;;;;4933914;29;20028;-68
2021/05/31 05:29:49;;;;;;;5.88;4.00;;;359.10;2329.60;;;;;;4933973;29;20114;-69
2021/05/31 05:32:15;;;;;;;6.18;4.25;;;359.30;2329.60;;;;;;4938255;29;20032;-69
2021/05/31 05:34:41;;;;;;;7.43;4.03;;;384.10;2329.60;;;;;;4933659;28;20032;-68
2021/05/31 05:37:14;;;;;;;6.63;4.20;;;384.30;2329.60;;;;;;4933162;29;20036;-69
2021/05/31 05:40:10;;;;;;;8.30;4.07;;;384.60;2329.60;;;;;;4933395;29;20020;-70
2021/05/31 05:47:48;;;;;;;5.20;4.00;;;410.00;2355.20;;;;;;4933691;29;20042;-68
2021/05/31 05:50:17;;;;;;;6.38;4.10;;;410.10;2355.20;;;;;;4933494;29;20028;-68
2021/05/31 05:52:43;;;;;;;5.28;3.95;;;410.40;2355.20;;;;;;4933913;29;20038;-67
2021/05/31 05:55:11;;;;;;;6.95;3.97;;;435.20;2355.20;;;;;;4932172;29;20027;-68
2021/05/31 05:57:38;;;;;;;6.30;3.70;;;435.30;2355.20;;;;;;4932298;29;20031;-67
2021/05/31 06:00:15;;;;;;;5.00;3.63;;;435.30;2355.20;;;;;;4933380;29;20023;-66
2021/05/31 06:02:41;;;;;;;4.70;3.40;;;435.40;2355.20;;;;;;4933473;29;20024;-68
2021/05/31 06:05:08;;;;;;;6.97;3.83;;;435.70;2355.20;;;;;;4933441;29;20026;-68
2021/05/31 06:07:34;;;;;;;7.15;4.22;;;435.90;2355.20;;;;;;4933326;29;20074;-68
2021/05/31 06:10:01;;;;;;;6.57;4.60;;;435.50;2355.20;;;;;;4932020;29;20035;-67
2021/05/31 06:12:27;;;;;;;6.38;4.68;;;435.50;2355.20;;;;;;4933104;29;20047;-67
2021/05/31 06:14:53;;;;;;;5.07;3.78;;;435.80;2355.20;;;;;;4933568;29;20032;-66
2021/05/31 06:17:19;;;;;;;6.38;4.80;;;435.90;2355.20;;;;;;4933252;29;20121;-67
2021/05/31 06:19:45;;;;;;;6.20;4.43;;;436.10;2355.20;;;;;;4933006;29;20055;-67
2021/05/31 06:22:10;;;;;;;6.38;4.63;;;436.10;2355.20;;;;;;4933234;29;20027;-67
2021/05/31 06:24:36;;;;;;;6.88;4.60;;;435.90;2355.20;;;;;;4933030;29;20024;-68
2021/05/31 06:27:02;;;;;;;5.35;4.20;;;435.90;2355.20;;;;;;4936826;29;20027;-66
2021/05/31 06:29:28;;;;;;;5.60;4.15;;;436.10;2355.20;;;;;;4935456;28;20098;-68
2021/05/31 06:31:54;;;;;;;6.45;3.63;;;461.10;2380.80;;;;;;4932972;29;20478;-68
2021/05/31 06:34:20;;;;;;;6.22;4.10;;;461.50;2380.80;;;;;;4933085;29;20441;-68
2021/05/31 06:36:48;;;;;;;5.32;4.10;;;461.60;2380.80;;;;;;4932673;29;20066;-66
2021/05/31 06:39:14;;;;;;;6.10;4.25;;;486.50;2380.80;;;;;;4932872;29;20024;-68
2021/05/31 06:41:40;;;;;;;5.40;4.40;;;487.00;2380.80;;;;;;4925774;29;20512;-68
2021/05/31 06:44:06;;;;;;;7.20;4.22;;;487.10;2380.80;;;;;;4932899;29;20028;-67
2021/05/31 06:46:32;;;;;;;5.63;4.20;;;487.30;2380.80;;;;;;4933025;28;20031;-66
2021/05/31 06:48:58;;;;;;;5.05;3.70;;;512.20;2380.80;;;;;;4932919;29;20038;-66
2021/05/31 06:51:24;;;;;;;5.68;4.15;;;512.50;2380.80;;;;;;4932855;29;20035;-66
2021/05/31 06:53:49;;;;;;;5.93;4.65;;;512.70;2380.80;;;;;;4932667;29;20394;-66
2021/05/31 06:56:19;;;;;;;6.07;4.20;;;512.80;2380.80;;;;;;4932481;29;20077;-67
2021/05/31 06:58:46;;;;;;;5.45;4.15;;;537.70;2406.40;;;;;;4932888;29;20036;-67
2021/05/31 07:01:12;;;;;;;5.80;4.50;;;537.90;2406.40;;;;;;4932784;29;20024;-67
2021/05/31 07:03:38;;;;;;;6.15;4.65;;;538.00;2406.40;;;;;;4932700;29;20402;-67
2021/05/31 07:06:05;;;;;;;6.70;4.50;;;537.70;2406.40;;;;;;4932889;29;20090;-66
2021/05/31 07:08:31;;;;;;;7.88;4.35;;;537.70;2406.40;;;;;;4932434;29;20115;-68
2021/05/31 07:11:01;;;;;;;6.20;4.47;;;538.00;2406.40;;;;;;4932646;29;20106;-68
2021/05/31 07:13:29;;;;;;;5.60;4.50;;;538.20;2406.40;;;;;;4932534;29;20028;-66
2021/05/31 07:15:55;;;;;;;5.55;4.47;;;538.00;2406.40;;;;;;4932533;29;20445;-66
2021/05/31 07:18:21;;;;;;;6.60;4.90;;;537.80;2406.40;;;;;;4932302;29;20027;-67
2021/05/31 07:20:49;;;;;;;6.65;5.32;;;512.60;2380.80;;;;;;4932140;29;20044;-66
2021/05/31 07:23:15;;;;;;;8.57;6.68;;;512.40;2380.80;;;;;;4947121;29;20533;-67
2021/05/31 07:25:41;;;;;;;7.47;6.32;;;512.40;2380.80;;;;;;4932263;29;20091;-66
2021/05/31 07:28:06;;;;;;;7.50;5.30;;;512.60;2380.80;;;;;;4932251;29;20115;-66
2021/05/31 07:30:33;;;;;;;7.35;5.38;;;512.10;2380.80;;;;;;4932173;29;20099;-65
2021/05/31 07:32:59;;;;;;;7.85;4.82;;;487.30;2380.80;;;;;;4932391;29;20126;-65
2021/05/31 07:35:25;;;;;;;7.10;5.10;;;512.30;2380.80;;;;;;4932112;29;20146;-67
2021/05/31 07:37:50;;;;;;;6.05;4.80;;;512.40;2380.80;;;;;;4932000;29;20115;-65
2021/05/31 07:40:17;;;;;;;8.10;4.63;;;512.30;2380.80;;;;;;4932170;29;20504;-65
2021/05/31 07:42:43;;;;;;;8.63;4.57;;;512.50;2380.80;;;;;;4932191;29;20027;-66
2021/05/31 07:45:11;;;;;;;9.43;5.20;;;512.80;2380.80;;;;;;4932288;28;20032;-65
2021/05/31 07:47:37;;;;;;;8.88;5.10;;;537.70;2406.40;;;;;;4936838;28;20035;-67
2021/05/31 07:50:06;;;;;;;7.50;5.07;;;538.00;2406.40;;;;;;4932158;29;20043;-68
2021/05/31 07:52:32;;;;;;;6.38;5.00;;;538.10;2406.40;;;;;;4931895;29;20031;-68
2021/05/31 07:54:57;;;;;;;6.00;4.78;;;538.30;2406.40;;;;;;4931847;29;20028;-69
2021/05/31 07:57:24;;;;;;;5.72;4.72;;;538.40;2406.40;;;;;;4931665;29;20468;-69
2021/05/31 07:59:53;;;;;;;5.63;4.40;;;538.40;2406.40;;;;;;4931747;29;20427;-67
2021/05/31 08:02:19;;;;;;;6.05;4.47;;;538.50;2406.40;;;;;;4931767;28;20098;-67
2021/05/31 08:04:45;;;;;;;7.88;4.40;;;538.00;2406.40;;;;;;4931760;29;20020;-67
2021/05/31 08:07:12;;;;;;;6.18;4.70;;;537.70;2406.40;;;;;;4931956;28;20043;-66
2021/05/31 08:09:39;;;;;;;6.03;4.80;;;512.70;2380.80;;;;;;4931738;29;20020;-71
2021/05/31 08:12:06;;;;;;;6.35;4.80;;;512.40;2380.80;;;;;;4931521;29;20457;-70
2021/05/31 08:14:32;;;;;;;7.00;5.00;;;512.00;2380.80;;;;;;4931807;29;20054;-69
2021/05/31 08:16:58;;;;;;;6.32;4.90;;;487.20;2380.80;;;;;;4931458;29;20024;-70
2021/05/31 08:19:29;;;;;;;6.40;5.07;;;487.00;2380.80;;;;;;4930247;29;20036;-68
2021/05/31 08:21:55;;;;;;;8.63;4.53;;;487.00;2380.80;;;;;;4934968;29;20114;-69
2021/05/31 08:24:21;;;;;;;8.35;4.60;;;487.10;2380.80;;;;;;4934989;28;20139;-68
2021/05/31 08:26:47;;;;;;;5.63;4.65;;;512.30;2380.80;;;;;;4934727;29;20535;-67
2021/05/31 08:29:13;;;;;;;6.88;4.30;;;512.60;2380.80;;;;;;4934711;29;20099;-68
2021/05/31 08:31:39;;;;;;;6.78;4.30;;;537.60;2406.40;;;;;;4934763;29;20026;-67
2021/05/31 08:34:05;;;;;;;5.22;4.50;;;537.70;2406.40;;;;;;4934848;29;20066;-68
2021/05/31 08:36:31;;;;;;;5.38;4.25;;;538.50;2406.40;;;;;;4934501;29;20430;-68
2021/05/31 08:39:00;;;;;;;5.90;4.57;;;563.20;2432.00;;;;;;4934718;29;20073;-69
2021/05/31 08:41:26;;;;;;;11.98;9.15;;;538.20;2406.40;;;;;;4934398;29;20030;-68
2021/05/31 08:43:52;;;;;;;10.70;8.68;;;538.00;2406.40;;;;;;4934433;29;20070;-67
2021/05/31 08:46:19;;;;;;;5.90;4.85;;;512.80;2380.80;;;;;;4934645;28;20482;-68
2021/05/31 08:48:45;;;;;;;6.10;4.47;;;512.50;2380.80;;;;;;4934485;29;20111;-69
2021/05/31 08:51:11;;;;;;;5.57;4.07;;;512.00;2380.80;;;;;;4934748;29;20399;-68
2021/05/31 08:53:37;;;;;;;6.13;4.30;;;512.00;2380.80;;;;;;4934292;29;20042;-71
2021/05/31 08:56:04;;;;;;;4.97;4.47;;;512.60;2380.80;;;;;;4934612;29;20031;-71
2021/05/31 08:58:30;;;;;;;7.90;4.65;;;537.60;2406.40;;;;;;4934161;29;20075;-72
2021/05/31 09:00:56;;;;;;;6.25;4.82;;;538.30;2406.40;;;;;;4934418;29;20027;-68
2021/05/31 09:03:22;;;;;;;6.05;4.60;;;538.00;2406.40;;;;;;4934655;29;20043;-69
2021/05/31 09:05:49;;;;;;;5.13;4.45;;;538.00;2406.40;;;;;;4934540;29;20023;-67
2021/05/31 09:08:18;;;;;;;5.68;5.00;;;538.50;2406.40;;;;;;4934594;29;20024;-68
2021/05/31 09:10:47;;;;;;;6.97;4.72;;;538.50;2406.40;;;;;;4934175;29;20478;-69
2021/05/31 09:13:39;;;;;;;7.45;5.10;;;563.30;2432.00;;;;;;4934187;29;20028;-68
2021/05/31 09:16:10;;;;;;;5.03;4.50;;;563.40;2432.00;;;;;;4934208;28;20056;-68
2021/05/31 09:18:37;;;;;;;4.95;3.92;;;563.50;2432.00;;;;;;4934169;29;20023;-69
2021/05/31 09:21:12;;;;;;;4.70;3.92;;;563.30;2432.00;;;;;;4934241;29;20094;-69
2021/05/31 09:23:38;;;;;;;4.38;3.63;;;563.20;2432.00;;;;;;4934002;29;20520;-69
2021/05/31 09:26:05;;;;;;;5.50;3.75;;;563.50;2406.40;;;;;;4934221;29;20024;-68
2021/05/31 09:28:31;;;;;;;5.70;3.95;;;538.40;2355.20;;;;;;4933964;29;20030;-68
2021/05/31 09:30:56;;;;;;;4.57;3.97;;;538.20;2355.20;;;;;;4933619;29;20032;-68
2021/05/31 09:33:22;;;;;;;4.65;4.15;;;538.00;2380.80;;;;;;4934198;29;20058;-68
2021/05/31 09:35:48;;;;;;;4.63;4.13;;;512.90;2355.20;;;;;;4933775;29;20024;-68
2021/05/31 09:38:15;;;;;;;5.82;4.75;;;537.60;2406.40;;;;;;4933969;29;20032;-68
2021/05/31 09:40:54;;;;;;;5.32;4.82;;;537.60;2406.40;;;;;;4934158;29;20024;-68
2021/05/31 09:43:22;;;;;;;5.28;4.68;;;512.70;2380.80;;;;;;4933984;29;20027;-68
2021/05/31 09:45:48;;;;;;;4.20;3.58;;;512.80;2380.80;;;;;;4933559;29;20028;-69
2021/05/31 09:48:15;;;;;;;3.97;3.35;;;538.00;2355.20;;;;;;4933804;29;20034;-68
2021/05/31 09:50:41;;;;;;;5.40;4.10;;;538.30;2329.60;;;;;;4933678;29;20030;-69
2021/05/31 09:53:11;;;;;;;12.30;4.32;;;563.20;2304.00;;;;;;4933541;29;20032;-68
2021/05/31 09:55:40;;;;;;;5.60;3.83;;;563.60;2329.60;;;;;;4933372;29;20024;-68
2021/05/31 09:58:10;;;;;;;4.13;2.88;;;563.90;2329.60;;;;;;4933754;29;20040;-68
2021/05/31 10:00:37;;;;;;;3.72;2.60;;;563.80;2227.20;;;;;;4933301;29;20027;-69
2021/05/31 10:03:23;;;;;;;3.53;2.80;;;563.50;2227.20;;;;;;4933375;29;20027;-69
2021/05/31 10:10:53;;;;;;;4.25;3.05;;;538.00;2227.20;;;;;;4933249;29;20103;-69
2021/05/31 10:13:19;;;;;;;3.95;3.05;;;538.10;2252.80;;;;;;4933137;29;20455;-71
2021/05/31 10:15:46;;;;;;;4.15;3.40;;;563.20;2278.40;;;;;;4919631;29;20032;-72
2021/05/31 10:18:16;;;;;;;4.75;3.80;;;538.40;2252.80;;;;;;4933421;29;20077;-70
2021/05/31 10:20:42;;;;;;;5.15;4.20;;;538.30;2252.80;;;;;;4933346;29;20504;-67
2021/05/31 10:23:09;;;;;;;4.82;4.22;;;538.10;2278.40;;;;;;4933444;29;20174;-66
2021/05/31 10:25:39;;;;;;;5.38;4.78;;;538.00;2304.00;;;;;;4933085;29;20028;-66
2021/05/31 10:28:20;;;;;;;14.20;5.60;;;537.80;2329.60;;;;;;4933056;29;20062;-68
2021/05/31 10:30:49;;;;;;;7.10;5.40;;;537.70;2380.80;;;;;;4932849;29;20039;-69
2021/05/31 10:33:21;;;;;;;6.75;5.22;;;537.70;2380.80;;;;;;4932926;29;20038;-67
2021/05/31 10:35:52;;;;;;;7.07;5.43;;;537.90;2329.60;;;;;;4933214;29;20421;-69
2021/05/31 10:38:22;;;;;;;6.65;5.30;;;538.30;2380.80;;;;;;4932883;29;20095;-68
2021/05/31 10:40:50;;;;;;;6.93;5.20;;;538.40;2329.60;;;;;;4932931;29;20031;-69
2021/05/31 10:43:19;;;;;;;5.30;4.78;;;563.40;2329.60;;;;;;4932151;29;20028;-70
2021/05/31 10:45:46;;;;;;;6.25;5.20;;;563.60;2304.00;;;;;;4932713;29;20034;-68
2021/05/31 10:48:12;;;;;;;6.20;5.45;;;564.00;2329.60;;;;;;4932749;29;20034;-68
2021/05/31 10:50:49;;;;;;;6.07;5.00;;;564.00;2252.80;;;;;;4936531;29;20015;-68
2021/05/31 10:55:55;;;;;;;5.85;5.25;;;564.10;2278.40;;;;;;4924758;29;20024;-68
2021/05/31 10:58:24;;;;;;;4.78;4.28;;;588.90;2227.20;;;;;;4932467;29;20498;-68
2021/05/31 11:01:01;;;;;;;3.80;3.10;;;589.10;2176.00;;;;;;4932815;28;20031;-68
2021/05/31 11:03:29;;;;;;;4.55;3.30;;;589.00;2099.20;;;;;;4932677;29;20023;-68
2021/05/31 11:05:55;;;;;;;7.25;5.63;;;588.90;2124.80;;;;;;4932163;29;20074;-69
2021/05/31 11:08:31;;;;;;;12.38;9.48;;;588.90;2124.80;;;;;;4932881;29;20620;-68
2021/05/31 11:11:02;;;;;;;4.60;3.78;;;589.00;2124.80;;;;;;4932756;28;20026;-68
2021/05/31 11:13:29;;;;;;;3.60;2.80;;;589.60;2073.60;;;;;;4939636;29;20054;-68
2021/05/31 11:16:07;;;;;;;8.80;6.05;;;589.60;2048.00;;;;;;4948360;28;20047;-69
2021/05/31 11:18:44;;;;;;;4.10;3.20;;;589.70;2048.00;;;;;;4950416;28;20055;-69
2021/05/31 11:21:22;;;;;;;4.63;3.72;;;589.70;2022.40;;;;;;4950600;28;20028;-69
2021/05/31 11:24:05;;;;;;;5.68;4.70;;;589.40;2022.40;;;;;;4951523;28;20102;-69
2021/05/31 11:26:34;;;;;;;7.82;6.75;;;589.30;2099.20;;;;;;4949361;28;20031;-70
2021/05/31 11:29:01;;;;;;;5.38;4.40;;;563.80;2150.40;;;;;;4949273;28;20039;-69
2021/05/31 11:31:27;;;;;;;5.60;4.60;;;563.60;2176.00;;;;;;4947659;28;20019;-68
2021/05/31 11:33:55;;;;;;;5.72;3.90;;;563.40;2176.00;;;;;;4949798;28;20035;-67
2021/05/31 11:36:31;;;;;;;5.38;4.25;;;563.70;2150.40;;;;;;4948894;28;20073;-68
2021/05/31 11:38:56;;;;;;;6.90;4.50;;;563.80;2124.80;;;;;;4950664;28;20095;-72
2021/05/31 11:41:31;;;;;;;4.45;3.42;;;538.40;2124.80;;;;;;4950453;28;20366;-70
2021/05/31 11:43:57;;;;;;;5.32;3.53;;;512.50;2150.40;;;;;;4949854;28;20035;-66
2021/05/31 11:46:23;;;;;;;4.38;3.53;;;487.20;2201.60;;;;;;4948833;28;20026;-69
2021/05/31 11:48:49;;;;;;;5.60;4.30;;;512.20;2227.20;;;;;;4949464;28;20027;-69
2021/05/31 11:51:15;;;;;;;5.32;4.50;;;512.80;2227.20;;;;;;4950981;28;20035;-68
2021/05/31 11:53:45;;;;;;;5.70;4.68;;;537.60;2278.40;;;;;;4951192;28;20074;-67
2021/05/31 11:56:12;;;;;;;7.17;4.93;;;537.80;2278.40;;;;;;4948796;28;20096;-69
2021/05/31 11:58:42;;;;;;;5.90;4.53;;;538.00;2252.80;;;;;;4950455;28;20105;-69
2021/05/31 12:01:11;;;;;;;6.93;5.40;;;538.20;2304.00;;;;;;4941524;29;20551;-69
2021/05/31 12:03:39;;;;;;;7.68;4.78;;;538.40;2252.80;;;;;;4939283;29;20106;-70
2021/05/31 12:06:14;;;;;;;6.28;4.53;;;563.50;2278.40;;;;;;4948725;29;20036;-71
2021/05/31 12:08:41;;;;;;;6.00;4.22;;;563.70;2227.20;;;;;;4951725;28;20059;-70
2021/05/31 12:11:07;;;;;;;8.75;4.53;;;563.90;2201.60;;;;;;4940412;29;20019;-72
2021/05/31 12:13:34;;;;;;;8.32;4.43;;;563.90;2176.00;;;;;;4952097;28;20106;-72
2021/05/31 12:16:16;;;;;;;5.95;4.30;;;564.10;2176.00;;;;;;4951137;28;20035;-69
2021/05/31 12:18:43;;;;;;;6.32;4.60;;;563.70;2176.00;;;;;;4952668;28;20019;-70
2021/05/31 12:21:09;;;;;;;5.80;4.10;;;563.60;2201.60;;;;;;4951922;28;20019;-70
2021/05/31 12:23:36;;;;;;;5.40;4.40;;;563.60;2201.60;;;;;;4953292;28;20457;-70
2021/05/31 12:26:05;;;;;;;5.53;4.43;;;538.50;2201.60;;;;;;4953304;28;20023;-70
2021/05/31 12:28:36;;;;;;;7.78;4.22;;;538.40;2201.60;;;;;;4952694;28;20077;-70
2021/05/31 12:31:03;;;;;;;6.70;4.30;;;538.00;2227.20;;;;;;4952070;28;20031;-67
2021/05/31 12:33:29;;;;;;;5.60;3.88;;;537.90;2252.80;;;;;;4953500;28;20035;-69
2021/05/31 12:35:55;;;;;;;6.30;4.22;;;537.80;2227.20;;;;;;4953055;28;20116;-69